createdAt,value
2022-11-29T00:01:57.497Z,62.20
2022-11-29T00:06:59.173Z,58.88
2022-11-29T00:12:12.505Z,61.45
2022-11-29T00:17:14.076Z,53.38
2022-11-29T00:22:15.639Z,54.90
2022-11-29T00:27:17.915Z,52.65
2022-11-29T00:32:19.475Z,50.78
2022-11-29T00:37:21.114Z,50.75
2022-11-29T00:42:22.710Z,57.22
2022-11-29T00:47:24.352Z,58.25
2022-11-29T00:52:25.946Z,59.30
2022-11-29T00:57:27.553Z,55.38
2022-11-29T01:02:29.187Z,56.33
2022-11-29T01:07:30.832Z,53.85
2022-11-29T01:12:36.387Z,54.72
2022-11-29T01:17:39.639Z,55.13
2022-11-29T01:22:41.338Z,51.78
2022-11-29T01:27:42.971Z,52.67
2022-11-29T01:32:44.525Z,51.15
2022-11-29T01:37:46.071Z,49.17
2022-11-29T01:42:47.853Z,51.85
2022-11-29T01:47:55.258Z,46.40
2022-11-29T01:52:56.900Z,51.70
2022-11-29T01:58:00.310Z,50.75
2022-11-29T02:03:14.944Z,50.15
2022-11-29T02:08:23.244Z,48.70
2022-11-29T02:13:40.359Z,42.30
2022-11-29T02:18:57.462Z,47.95
2022-11-29T02:24:27.012Z,49.85
2022-11-29T02:29:34.385Z,46.63
2022-11-29T02:35:16.662Z,45.33
2022-11-29T02:40:36.582Z,45.50
2022-11-29T02:46:03.310Z,46.22
2022-11-29T02:51:12.092Z,50.05
2022-11-29T02:56:25.664Z,44.93
2022-11-29T03:01:33.095Z,41.67
2022-11-29T03:06:43.957Z,41.60
2022-11-29T03:11:58.523Z,44.03
2022-11-29T03:17:20.583Z,43.97
2022-11-29T03:22:34.387Z,41.75
2022-11-29T03:27:42.244Z,36.83
2022-11-29T03:32:58.705Z,38.90
2022-11-29T03:38:16.677Z,39.13
2022-11-29T03:43:30.602Z,37.17
2022-11-29T03:48:37.704Z,35.55
2022-11-29T03:53:50.729Z,36.63
2022-11-29T03:58:58.071Z,42.03
2022-11-29T04:04:38.455Z,39.20
2022-11-29T04:10:17.541Z,40.13
2022-11-29T04:15:42.595Z,42.17
2022-11-29T04:21:08.683Z,38.83
2022-11-29T04:26:37.968Z,38.88
2022-11-29T04:31:58.134Z,38.35
2022-11-29T04:37:14.567Z,35.55
2022-11-29T04:42:38.046Z,34.83
2022-11-29T04:47:45.591Z,36.25
2022-11-29T04:53:21.004Z,37.65
2022-11-29T04:58:34.714Z,37.95
2022-11-29T05:03:45.671Z,36.17
2022-11-29T05:09:04.504Z,33.50
2022-11-29T05:14:20.370Z,36.35
2022-11-29T05:19:58.183Z,34.50
2022-11-29T05:25:02.426Z,35.58
2022-11-29T05:30:11.491Z,35.10
2022-11-29T05:35:18.754Z,36.08
2022-11-29T05:40:41.386Z,33.60
2022-11-29T05:46:06.022Z,33.63
2022-11-29T05:51:38.543Z,33.22
2022-11-29T05:56:58.052Z,32.25
2022-11-29T06:07:29.827Z,36.70
2022-11-29T06:12:36.096Z,35.65
2022-11-29T06:17:56.042Z,38.20
2022-11-29T06:23:24.934Z,34.63
2022-11-29T06:28:44.411Z,32.05
2022-11-29T06:39:00.510Z,38.92
2022-11-29T06:44:02.406Z,37.47
2022-11-29T06:49:06.631Z,33.67
2022-11-29T06:54:42.461Z,40.47
2022-11-29T06:59:56.220Z,39.30
2022-11-29T07:05:06.961Z,35.20
2022-11-29T07:10:17.400Z,41.38
2022-11-29T07:15:21.654Z,39.50
2022-11-29T07:20:54.453Z,37.17
2022-11-29T07:26:01.919Z,45.63
2022-11-29T07:31:13.596Z,39.22
2022-11-29T07:36:37.509Z,40.80
2022-11-29T07:41:52.841Z,43.88
2022-11-29T07:46:54.489Z,37.53
2022-11-29T07:51:56.354Z,38.50
2022-11-29T07:56:57.880Z,35.03
2022-11-29T08:01:59.555Z,40.55
2022-11-29T08:07:01.178Z,40.72
2022-11-29T08:12:02.837Z,39.45
2022-11-29T08:17:04.433Z,37.55
2022-11-29T08:22:06.025Z,38.45
2022-11-29T08:27:07.649Z,39.28
2022-11-29T08:32:09.210Z,37.40
2022-11-29T08:37:10.794Z,38.97
2022-11-29T08:42:12.415Z,40.90
2022-11-29T08:47:32.343Z,36.50
2022-11-29T08:52:58.309Z,42.70
2022-11-29T08:58:09.921Z,38.53
2022-11-29T09:03:29.811Z,39.63
2022-11-29T09:08:31.423Z,43.42
2022-11-29T09:13:32.965Z,35.63
2022-11-29T09:18:34.601Z,36.03
2022-11-29T09:23:37.011Z,40.63
2022-11-29T09:28:38.551Z,40.60
2022-11-29T09:33:40.765Z,43.15
2022-11-29T09:38:42.516Z,44.42
2022-11-29T09:44:05.781Z,46.65
2022-11-29T09:49:25.951Z,42.60
2022-11-29T09:54:38.410Z,44.47
2022-11-29T09:59:45.056Z,41.38
2022-11-29T10:04:52.408Z,43.72
2022-11-29T10:10:01.904Z,43.03
2022-11-29T10:20:41.453Z,38.95
2022-11-29T10:25:51.279Z,35.75
2022-11-29T10:30:57.424Z,40.78
2022-11-29T10:36:04.228Z,39.67
2022-11-29T10:41:13.047Z,41.33
2022-11-29T10:46:38.035Z,39.88
2022-11-29T10:51:39.625Z,36.70
2022-11-29T10:56:42.706Z,36.72
2022-11-29T11:01:44.510Z,39.58
2022-11-29T11:06:49.820Z,40.53
2022-11-29T11:11:59.973Z,39.35
2022-11-29T11:17:27.754Z,35.13
2022-11-29T11:22:32.607Z,36.90
2022-11-29T11:27:37.280Z,39.35
2022-11-29T11:32:38.891Z,39.78
2022-11-29T11:37:40.512Z,41.53
2022-11-29T11:42:42.863Z,35.75
2022-11-29T11:47:50.692Z,38.28
2022-11-29T11:52:55.733Z,37.05
2022-11-29T11:58:12.587Z,35.70
2022-11-29T12:03:39.689Z,36.10
2022-11-29T12:08:43.288Z,33.42
2022-11-29T12:13:55.289Z,34.00
2022-11-29T12:19:12.070Z,30.02
2022-11-29T12:24:23.699Z,33.17
2022-11-29T12:29:28.875Z,31.67
2022-11-29T12:34:52.161Z,33.55
2022-11-29T12:40:14.916Z,34.30
2022-11-29T12:45:45.574Z,30.15
2022-11-29T12:50:58.897Z,32.45
2022-11-29T12:56:28.023Z,34.75
2022-11-29T13:01:55.636Z,31.60
2022-11-29T13:07:10.971Z,30.75
2022-11-29T13:12:40.570Z,32.85
2022-11-29T13:18:05.347Z,32.25
2022-11-29T13:23:45.436Z,34.95
2022-11-29T13:28:54.667Z,31.95
2022-11-29T13:33:58.969Z,30.95
2022-11-29T13:39:28.239Z,30.25
2022-11-29T13:45:12.539Z,29.63
2022-11-29T13:50:37.400Z,28.50
2022-11-29T13:55:48.767Z,27.35
2022-11-29T14:00:51.937Z,35.72
2022-11-29T14:06:04.346Z,66.80
2022-11-29T14:11:11.915Z,28.15
2022-11-29T14:16:49.234Z,30.52
2022-11-29T14:21:56.545Z,24.77
2022-11-29T14:27:21.379Z,22.33
2022-11-29T14:32:24.450Z,27.33
2022-11-29T14:37:35.448Z,26.67
2022-11-29T14:42:47.950Z,27.90
2022-11-29T14:47:50.285Z,26.10
2022-11-29T14:52:52.701Z,29.92
2022-11-29T14:58:06.330Z,32.40
2022-11-29T15:03:16.347Z,25.77
2022-11-29T15:08:30.445Z,41.72
2022-11-29T15:13:35.515Z,41.13
2022-11-29T15:19:12.254Z,35.33
2022-11-29T15:24:16.118Z,51.88
2022-11-29T15:29:21.523Z,40.40
2022-11-29T15:34:45.248Z,33.08
2022-11-29T15:39:47.049Z,29.02
2022-11-29T15:44:49.418Z,29.08
2022-11-29T15:49:52.523Z,27.55
2022-11-29T15:55:00.887Z,30.92
2022-11-29T16:00:07.402Z,31.42
2022-11-29T16:05:08.904Z,31.70
2022-11-29T16:10:33.603Z,33.67
2022-11-29T16:15:39.499Z,34.50
2022-11-29T16:20:42.867Z,33.58
2022-11-29T16:25:59.810Z,31.10
2022-11-29T16:31:01.815Z,32.90
2022-11-29T16:36:14.211Z,34.42
2022-11-29T16:41:39.030Z,28.50
2022-11-29T16:46:40.842Z,30.70
2022-11-29T16:51:48.646Z,30.63
2022-11-29T16:56:52.415Z,31.88
2022-11-29T17:01:54.437Z,32.45
2022-11-29T17:06:56.905Z,30.35
2022-11-29T17:12:01.976Z,33.45
2022-11-29T17:17:03.837Z,31.67
2022-11-29T17:22:05.441Z,30.60
2022-11-29T17:27:07.590Z,32.50
2022-11-29T17:32:09.276Z,32.20
2022-11-29T17:37:10.966Z,30.73
2022-11-29T17:42:13.719Z,49.80
2022-11-29T17:47:17.283Z,80.20
2022-11-29T17:52:18.926Z,50.00
2022-11-29T17:57:20.589Z,53.15
2022-11-29T18:02:22.228Z,49.05
2022-11-29T18:07:23.949Z,46.78
2022-11-29T18:12:25.514Z,42.17
2022-11-29T18:17:27.057Z,43.00
2022-11-29T18:22:28.679Z,46.47
2022-11-29T18:27:30.830Z,41.03
2022-11-29T18:32:33.220Z,38.17
2022-11-29T18:38:12.808Z,42.15
2022-11-29T18:42:57.496Z,43.55
2022-11-29T18:47:59.246Z,45.63
2022-11-29T18:53:00.805Z,48.85
2022-11-29T18:58:02.445Z,43.55
2022-11-29T19:03:04.264Z,48.08
2022-11-29T19:08:06.182Z,44.70
2022-11-29T19:13:07.972Z,40.22
2022-11-29T19:18:09.538Z,48.03
2022-11-29T19:23:11.169Z,48.90
2022-11-29T19:28:14.454Z,44.97
2022-11-29T19:33:16.112Z,41.45
2022-11-29T19:38:17.678Z,52.95
2022-11-29T19:43:19.298Z,59.65
2022-11-29T19:48:20.935Z,59.35
2022-11-29T19:53:22.464Z,64.85
2022-11-29T19:58:24.185Z,62.80
2022-11-29T20:03:25.722Z,62.90
2022-11-29T20:08:27.524Z,65.63
2022-11-29T20:13:29.171Z,64.78
2022-11-29T20:18:34.414Z,61.92
2022-11-29T20:23:36.630Z,67.65
2022-11-29T20:28:38.184Z,65.43
2022-11-29T20:33:41.880Z,69.38
2022-11-29T20:38:52.853Z,66.47
2022-11-29T20:43:58.822Z,65.18
2022-11-29T20:49:06.189Z,69.50
2022-11-29T20:54:11.028Z,73.78
2022-11-29T20:59:12.625Z,71.10
2022-11-29T21:04:17.704Z,71.32
2022-11-29T21:09:21.809Z,73.28
2022-11-29T21:14:23.704Z,82.03
2022-11-29T21:19:28.164Z,75.85
2022-11-29T21:24:41.993Z,73.70
2022-11-29T21:29:43.836Z,81.90
2022-11-29T21:34:45.749Z,71.30
2022-11-29T21:39:51.411Z,80.82
2022-11-29T21:44:52.972Z,70.72
2022-11-29T21:49:54.870Z,76.55
2022-11-29T21:54:57.682Z,79.43
2022-11-29T21:59:59.252Z,77.88
2022-11-29T22:05:00.805Z,82.15
2022-11-29T22:10:09.966Z,78.65
2022-11-29T22:15:19.085Z,79.95
2022-11-29T22:20:23.243Z,82.90
2022-11-29T22:25:24.800Z,85.78
2022-11-29T22:30:26.409Z,85.97
2022-11-29T22:35:27.997Z,81.75
2022-11-29T22:40:29.562Z,79.78
2022-11-29T22:45:31.098Z,81.95
2022-11-29T22:50:32.628Z,85.45
2022-11-29T22:55:34.188Z,85.50
2022-11-29T23:00:42.256Z,84.50
2022-11-29T23:05:43.836Z,87.30
2022-11-29T23:10:55.821Z,112.05
2022-11-29T23:15:57.379Z,135.98
2022-11-29T23:21:12.212Z,141.63
2022-11-29T23:26:41.266Z,130.38
2022-11-29T23:31:43.198Z,151.35
2022-11-29T23:36:49.628Z,117.38
2022-11-29T23:41:54.090Z,93.18
2022-11-29T23:46:55.646Z,93.00
2022-11-29T23:51:57.229Z,86.90
2022-11-29T23:56:58.858Z,81.70
